TAF and METAR

Decoding for American and Canadian METARs and TAFs is not fully implemented.

Could not understand the following METAR

KVLD 192053Z 15014G20KT 8SM FEW012 BKN022 OVC050 26/23 A2960 RMK AO2 RAE35 SLP028 P0006 60012 T02560233 56028

TAF for Valdosta Regional Airport

KVLD 191722Z 1918/2018 14017G26KT 5SM SHRA BR OVC008 FM200800 31005KT P6SM BKN009
Report created 19. okt 19:22

between 19. okt 20:00 - 20. okt 20:00

wind 17 knots from SE (140°) with gusts up to 26 knots
Valdosta Regional Airport in United States of America at 62m

Latest 5 airports